sensor_id;sensor_type;location;lat;lon;timestamp;pressure;altitude;pressure_sealevel;temperature;humidity
44079;BME280;29744;49.078;12.878;2023-05-19T00:01:36;96982.56;;;15.14;40.59
44079;BME280;29744;49.078;12.878;2023-05-19T00:06:37;96986.38;;;15.13;40.47
44079;BME280;29744;49.078;12.878;2023-05-19T00:11:39;96982.56;;;15.14;40.86
44079;BME280;29744;49.078;12.878;2023-05-19T00:16:39;96978.28;;;15.13;40.64
44079;BME280;29744;49.078;12.878;2023-05-19T00:21:41;96974.47;;;15.14;40.44
44079;BME280;29744;49.078;12.878;2023-05-19T00:26:41;96981.78;;;15.14;40.47
44079;BME280;29744;49.078;12.878;2023-05-19T00:31:41;96975.59;;;15.13;40.94
44079;BME280;29744;49.078;12.878;2023-05-19T00:36:42;96970.19;;;15.13;40.82
44079;BME280;29744;49.078;12.878;2023-05-19T00:41:42;96970.19;;;15.13;40.98
44079;BME280;29744;49.078;12.878;2023-05-19T00:46:42;96967.78;;;15.12;40.69
44079;BME280;29744;49.078;12.878;2023-05-19T00:51:43;96963.19;;;15.12;40.55
44079;BME280;29744;49.078;12.878;2023-05-19T00:56:43;96951.59;;;15.12;40.72
44079;BME280;29744;49.078;12.878;2023-05-19T01:01:44;96948.56;;;15.13;40.64
44079;BME280;29744;49.078;12.878;2023-05-19T01:06:48;96943.16;;;15.13;40.62
44079;BME280;29744;49.078;12.878;2023-05-19T01:11:54;96938.06;;;15.12;41.02
44079;BME280;29744;49.078;12.878;2023-05-19T01:17:03;96943.47;;;15.12;40.72
44079;BME280;29744;49.078;12.878;2023-05-19T01:32:44;96945.69;;;15.10;40.83
44079;BME280;29744;49.078;12.878;2023-05-19T01:37:47;96948.88;;;15.12;40.61
44079;BME280;29744;49.078;12.878;2023-05-19T01:42:55;96951.59;;;15.12;40.76
44079;BME280;29744;49.078;12.878;2023-05-19T01:47:57;96951.56;;;15.03;41.08
44079;BME280;29744;49.078;12.878;2023-05-19T01:52:57;96946.81;;;15.09;41.05
44079;BME280;29744;49.078;12.878;2023-05-19T02:03:45;96944.09;;;15.09;40.83
44079;BME280;29744;49.078;12.878;2023-05-19T02:09:02;96942.50;;;15.08;40.97
44079;BME280;29744;49.078;12.878;2023-05-19T02:14:11;96944.09;;;15.09;40.88
44079;BME280;29744;49.078;12.878;2023-05-19T02:19:27;96939.81;;;15.08;40.69
44079;BME280;29744;49.078;12.878;2023-05-19T02:24:27;96933.31;;;15.09;40.56
44079;BME280;29744;49.078;12.878;2023-05-19T02:29:27;96926.78;;;15.10;40.87
44079;BME280;29744;49.078;12.878;2023-05-19T02:34:27;96926.00;;;15.09;40.46
44079;BME280;29744;49.078;12.878;2023-05-19T02:39:28;96921.38;;;15.10;40.97
44079;BME280;29744;49.078;12.878;2023-05-19T02:44:33;96913.28;;;15.10;40.66
44079;BME280;29744;49.078;12.878;2023-05-19T02:49:34;96905.19;;;15.10;40.70
44079;BME280;29744;49.078;12.878;2023-05-19T02:54:35;96894.38;;;15.10;40.79
44079;BME280;29744;49.078;12.878;2023-05-19T02:59:35;96891.66;;;15.10;40.75
44079;BME280;29744;49.078;12.878;2023-05-19T03:04:35;96894.38;;;15.10;40.71
44079;BME280;29744;49.078;12.878;2023-05-19T03:09:41;96900.88;;;15.09;40.42
44079;BME280;29744;49.078;12.878;2023-05-19T03:14:41;96903.28;;;15.10;40.70
44079;BME280;29744;49.078;12.878;2023-05-19T03:19:42;96909.00;;;15.09;40.53
44079;BME280;29744;49.078;12.878;2023-05-19T03:24:43;96907.09;;;15.09;41.08
44079;BME280;29744;49.078;12.878;2023-05-19T03:29:43;96906.28;;;15.09;40.70
44079;BME280;29744;49.078;12.878;2023-05-19T03:34:43;96915.19;;;15.09;40.79
44079;BME280;29744;49.078;12.878;2023-05-19T03:39:44;96906.28;;;15.09;40.69
44079;BME280;29744;49.078;12.878;2023-05-19T03:44:44;96912.47;;;15.09;40.99
44079;BME280;29744;49.078;12.878;2023-05-19T03:49:44;96910.91;;;15.08;40.78
44079;BME280;29744;49.078;12.878;2023-05-19T03:54:44;96920.59;;;15.09;40.46
44079;BME280;29744;49.078;12.878;2023-05-19T03:59:45;96926.31;;;15.08;40.85
44079;BME280;29744;49.078;12.878;2023-05-19T04:04:45;96925.19;;;15.09;40.97
44079;BME280;29744;49.078;12.878;2023-05-19T04:09:45;96920.59;;;15.09;40.71
44079;BME280;29744;49.078;12.878;2023-05-19T04:14:47;96925.19;;;15.09;40.80
44079;BME280;29744;49.078;12.878;2023-05-19T04:19:48;96921.38;;;15.10;41.07
44079;BME280;29744;49.078;12.878;2023-05-19T04:24:48;96918.69;;;15.10;40.96
44079;BME280;29744;49.078;12.878;2023-05-19T04:29:49;96916.78;;;15.10;40.94
44079;BME280;29744;49.078;12.878;2023-05-19T04:34:49;96927.25;;;15.12;40.74
44079;BME280;29744;49.078;12.878;2023-05-19T04:39:50;96922.66;;;15.12;40.96
44079;BME280;29744;49.078;12.878;2023-05-19T04:44:51;96915.34;;;15.13;40.65
44079;BME280;29744;49.078;12.878;2023-05-19T04:49:51;96916.94;;;15.14;40.80
44079;BME280;29744;49.078;12.878;2023-05-19T04:54:54;96906.94;;;15.14;40.44
44079;BME280;29744;49.078;12.878;2023-05-19T04:59:54;96914.72;;;15.16;40.56
44079;BME280;29744;49.078;12.878;2023-05-19T05:04:59;96918.22;;;15.17;40.46
44079;BME280;29744;49.078;12.878;2023-05-19T05:09:59;96907.41;;;15.17;40.59
44079;BME280;29744;49.078;12.878;2023-05-19T05:14:59;96920.59;;;15.18;40.56
44079;BME280;29744;49.078;12.878;2023-05-19T05:20:01;96909.47;;;15.20;40.40
44079;BME280;29744;49.078;12.878;2023-05-19T05:25:02;96907.25;;;15.22;40.76
44079;BME280;29744;49.078;12.878;2023-05-19T05:30:03;96898.03;;;15.23;40.50
44079;BME280;29744;49.078;12.878;2023-05-19T05:35:04;96886.91;;;15.24;40.43
44079;BME280;29744;49.078;12.878;2023-05-19T05:40:05;96886.59;;;15.26;40.61
44079;BME280;29744;49.078;12.878;2023-05-19T05:45:06;96892.81;;;15.26;40.85
44079;BME280;29744;49.078;12.878;2023-05-19T05:50:08;96892.47;;;15.28;40.78
44079;BME280;29744;49.078;12.878;2023-05-19T05:55:09;96885.47;;;15.27;40.80
44079;BME280;29744;49.078;12.878;2023-05-19T06:00:10;96882.16;;;15.30;40.66
44079;BME280;29744;49.078;12.878;2023-05-19T06:05:16;96889.47;;;15.29;40.42
44079;BME280;29744;49.078;12.878;2023-05-19T06:10:17;96882.94;;;15.30;40.26
44079;BME280;29744;49.078;12.878;2023-05-19T06:15:17;96880.72;;;15.32;40.59
44079;BME280;29744;49.078;12.878;2023-05-19T06:20:17;96880.72;;;15.32;40.50
44079;BME280;29744;49.078;12.878;2023-05-19T06:25:17;96871.50;;;15.33;40.54
44079;BME280;29744;49.078;12.878;2023-05-19T06:30:19;96877.69;;;15.34;40.20
44079;BME280;29744;49.078;12.878;2023-05-19T06:35:19;96882.78;;;15.35;40.43
44079;BME280;29744;49.078;12.878;2023-05-19T06:40:20;96879.28;;;15.35;40.34
44079;BME280;29744;49.078;12.878;2023-05-19T06:45:20;96880.09;;;15.35;40.36
44079;BME280;29744;49.078;12.878;2023-05-19T06:50:21;96883.59;;;15.36;40.47
44079;BME280;29744;49.078;12.878;2023-05-19T06:55:21;96882.47;;;15.37;40.66
44079;BME280;29744;49.078;12.878;2023-05-19T07:00:22;96875.94;;;15.38;40.27
44079;BME280;29744;49.078;12.878;2023-05-19T07:05:22;96880.56;;;15.37;40.50
44079;BME280;29744;49.078;12.878;2023-05-19T07:10:22;96873.25;;;15.38;40.35
44079;BME280;29744;49.078;12.878;2023-05-19T07:15:23;96865.94;;;15.38;40.12
44079;BME280;29744;49.078;12.878;2023-05-19T07:20:23;96864.81;;;15.39;40.08
44079;BME280;29744;49.078;12.878;2023-05-19T07:25:23;96862.44;;;15.38;40.43
44079;BME280;29744;49.078;12.878;2023-05-19T07:30:27;96860.22;;;15.40;40.19
44079;BME280;29744;49.078;12.878;2023-05-19T07:35:27;96854.00;;;15.39;40.65
44079;BME280;29744;49.078;12.878;2023-05-19T07:40:28;96843.69;;;15.41;40.60
44079;BME280;29744;49.078;12.878;2023-05-19T07:45:28;96840.19;;;15.41;40.23
44079;BME280;29744;49.078;12.878;2023-05-19T07:50:28;96852.91;;;15.40;39.92
44079;BME280;29744;49.078;12.878;2023-05-19T07:55:29;96844.78;;;15.40;40.27
44079;BME280;29744;49.078;12.878;2023-05-19T08:00:29;96843.69;;;15.41;40.38
44079;BME280;29744;49.078;12.878;2023-05-19T08:05:30;96835.56;;;15.41;40.42
44079;BME280;29744;49.078;12.878;2023-05-19T08:10:30;96837.16;;;15.42;40.35
44079;BME280;29744;49.078;12.878;2023-05-19T08:15:30;96827.16;;;15.43;40.29
44079;BME280;29744;49.078;12.878;2023-05-19T08:20:30;96829.84;;;15.43;40.36
44079;BME280;29744;49.078;12.878;2023-05-19T08:25:31;96817.13;;;15.43;40.51
44079;BME280;29744;49.078;12.878;2023-05-19T08:30:31;96816.34;;;15.43;40.29
44079;BME280;29744;49.078;12.878;2023-05-19T08:35:32;96808.69;;;15.45;40.49
44079;BME280;29744;49.078;12.878;2023-05-19T08:40:33;96807.59;;;15.46;40.24
44079;BME280;29744;49.078;12.878;2023-05-19T08:45:39;96801.38;;;15.45;40.25
44079;BME280;29744;49.078;12.878;2023-05-19T08:50:47;96804.41;;;15.44;40.43
44079;BME280;29744;49.078;12.878;2023-05-19T09:01:03;96780.09;;;15.44;40.24
44079;BME280;29744;49.078;12.878;2023-05-19T09:06:05;96791.69;;;15.44;40.39
44079;BME280;29744;49.078;12.878;2023-05-19T09:11:10;96786.28;;;15.44;40.55
44079;BME280;29744;49.078;12.878;2023-05-19T09:16:11;96777.06;;;15.45;40.28
44079;BME280;29744;49.078;12.878;2023-05-19T09:21:12;96778.66;;;15.46;39.98
44079;BME280;29744;49.078;12.878;2023-05-19T09:26:13;96768.94;;;15.45;40.23
44079;BME280;29744;49.078;12.878;2023-05-19T09:31:14;96768.63;;;15.47;40.41
44079;BME280;29744;49.078;12.878;2023-05-19T09:36:14;96758.63;;;15.48;40.59
44079;BME280;29744;49.078;12.878;2023-05-19T09:41:15;96752.41;;;15.47;39.99
44079;BME280;29744;49.078;12.878;2023-05-19T09:46:15;96753.22;;;15.48;39.99
44079;BME280;29744;49.078;12.878;2023-05-19T09:51:15;96754.78;;;15.49;40.22
44079;BME280;29744;49.078;12.878;2023-05-19T09:56:16;96751.31;;;15.48;40.23
44079;BME280;29744;49.078;12.878;2023-05-19T10:01:16;96746.69;;;15.49;40.12
44079;BME280;29744;49.078;12.878;2023-05-19T10:06:17;96745.09;;;15.48;40.16
44079;BME280;29744;49.078;12.878;2023-05-19T10:11:19;96733.16;;;15.49;40.61
44079;BME280;29744;49.078;12.878;2023-05-19T10:16:20;96733.66;;;15.51;40.24
44079;BME280;29744;49.078;12.878;2023-05-19T10:21:21;96735.22;;;15.52;40.12
44079;BME280;29744;49.078;12.878;2023-05-19T10:26:21;96722.50;;;15.52;40.13
44079;BME280;29744;49.078;12.878;2023-05-19T10:31:23;96723.31;;;15.53;40.32
44079;BME280;29744;49.078;12.878;2023-05-19T10:46:29;96703.59;;;15.52;40.26
44079;BME280;29744;49.078;12.878;2023-05-19T10:51:31;96704.38;;;15.53;39.94
44079;BME280;29744;49.078;12.878;2023-05-19T10:56:32;96709.78;;;15.53;40.05
44079;BME280;29744;49.078;12.878;2023-05-19T11:01:35;96711.38;;;15.54;39.97
44079;BME280;29744;49.078;12.878;2023-05-19T11:06:37;96702.94;;;15.55;40.10
44079;BME280;29744;49.078;12.878;2023-05-19T11:16:46;96699.91;;;15.57;39.91
44079;BME280;29744;49.078;12.878;2023-05-19T11:21:47;96693.72;;;15.56;40.16
44079;BME280;29744;49.078;12.878;2023-05-19T11:26:53;96697.22;;;15.57;40.04
44079;BME280;29744;49.078;12.878;2023-05-19T11:31:54;96683.38;;;15.58;40.50
44079;BME280;29744;49.078;12.878;2023-05-19T11:36:54;96683.38;;;15.58;40.09
44079;BME280;29744;49.078;12.878;2023-05-19T11:41:55;96679.88;;;15.58;40.35
44079;BME280;29744;49.078;12.878;2023-05-19T11:46:57;96677.63;;;15.60;40.24
44079;BME280;29744;49.078;12.878;2023-05-19T11:52:01;96673.50;;;15.62;40.48
44079;BME280;29744;49.078;12.878;2023-05-19T11:57:02;96677.78;;;15.63;39.93
44079;BME280;29744;49.078;12.878;2023-05-19T12:02:23;96671.91;;;15.61;40.00
44079;BME280;29744;49.078;12.878;2023-05-19T12:07:24;96679.38;;;15.64;40.02
44079;BME280;29744;49.078;12.878;2023-05-19T12:12:25;96678.56;;;15.64;40.29
44079;BME280;29744;49.078;12.878;2023-05-19T12:17:25;96673.97;;;15.64;39.94
44079;BME280;29744;49.078;12.878;2023-05-19T12:22:25;96672.84;;;15.65;40.31
44079;BME280;29744;49.078;12.878;2023-05-19T12:27:26;96672.06;;;15.65;40.21
44079;BME280;29744;49.078;12.878;2023-05-19T12:32:26;96676.34;;;15.66;40.55
44079;BME280;29744;49.078;12.878;2023-05-19T12:37:31;96664.72;;;15.65;40.14
44079;BME280;29744;49.078;12.878;2023-05-19T12:42:35;96670.94;;;15.66;40.39
44079;BME280;29744;49.078;12.878;2023-05-19T12:47:36;96667.13;;;15.67;40.11
44079;BME280;29744;49.078;12.878;2023-05-19T12:52:44;96672.53;;;15.67;40.44
44079;BME280;29744;49.078;12.878;2023-05-19T12:57:48;96668.69;;;15.68;40.49
44079;BME280;29744;49.078;12.878;2023-05-19T13:03:00;96670.59;;;15.67;40.18
44079;BME280;29744;49.078;12.878;2023-05-19T13:08:06;96663.28;;;15.68;40.02
44079;BME280;29744;49.078;12.878;2023-05-19T13:13:07;96659.47;;;15.69;40.39
44079;BME280;29744;49.078;12.878;2023-05-19T13:18:09;96652.94;;;15.70;40.48
44079;BME280;29744;49.078;12.878;2023-05-19T13:23:10;96648.34;;;15.70;39.95
44079;BME280;29744;49.078;12.878;2023-05-19T13:28:11;96657.56;;;15.69;40.06
44079;BME280;29744;49.078;12.878;2023-05-19T13:33:11;96666.47;;;15.70;40.37
44079;BME280;29744;49.078;12.878;2023-05-19T13:38:12;96659.47;;;15.69;40.22
44079;BME280;29744;49.078;12.878;2023-05-19T13:43:12;96654.06;;;15.69;40.19
44079;BME280;29744;49.078;12.878;2023-05-19T13:48:12;96659.94;;;15.71;39.96
44079;BME280;29744;49.078;12.878;2023-05-19T13:53:13;96661.06;;;15.70;40.29
44079;BME280;29744;49.078;12.878;2023-05-19T13:58:13;96654.53;;;15.71;40.04
44079;BME280;29744;49.078;12.878;2023-05-19T14:03:15;96656.13;;;15.72;40.29
44079;BME280;29744;49.078;12.878;2023-05-19T14:08:18;96653.09;;;15.73;39.90
44079;BME280;29744;49.078;12.878;2023-05-19T14:13:18;96666.59;;;15.73;40.48
44079;BME280;29744;49.078;12.878;2023-05-19T14:18:19;96662.00;;;15.74;40.44
44079;BME280;29744;49.078;12.878;2023-05-19T14:23:20;96664.69;;;15.74;39.95
44079;BME280;29744;49.078;12.878;2023-05-19T14:28:20;96647.69;;;15.73;40.19
44079;BME280;29744;49.078;12.878;2023-05-19T14:33:20;96652.75;;;15.75;40.26
44079;BME280;29744;49.078;12.878;2023-05-19T14:38:21;96653.09;;;15.73;40.30
44079;BME280;29744;49.078;12.878;2023-05-19T14:43:21;96655.47;;;15.75;40.33
44079;BME280;29744;49.078;12.878;2023-05-19T14:48:22;96660.06;;;15.74;40.00
44079;BME280;29744;49.078;12.878;2023-05-19T14:53:22;96652.75;;;15.75;40.49
44079;BME280;29744;49.078;12.878;2023-05-19T14:58:22;96654.66;;;15.74;40.29
44079;BME280;29744;49.078;12.878;2023-05-19T15:03:23;96658.50;;;15.73;40.55
44079;BME280;29744;49.078;12.878;2023-05-19T15:08:23;96668.53;;;15.73;40.02
44079;BME280;29744;49.078;12.878;2023-05-19T15:13:24;96665.03;;;15.72;40.01
44079;BME280;29744;49.078;12.878;2023-05-19T15:18:25;96670.44;;;15.72;40.38
44079;BME280;29744;49.078;12.878;2023-05-19T15:23:25;96673.94;;;15.73;40.02
44079;BME280;29744;49.078;12.878;2023-05-19T15:28:25;96668.84;;;15.71;40.20
44079;BME280;29744;49.078;12.878;2023-05-19T15:33:26;96671.53;;;15.71;40.25
44079;BME280;29744;49.078;12.878;2023-05-19T15:38:26;96672.34;;;15.72;40.27
44079;BME280;29744;49.078;12.878;2023-05-19T15:43:26;96669.63;;;15.72;40.31
44079;BME280;29744;49.078;12.878;2023-05-19T15:48:26;96667.25;;;15.70;40.09
44079;BME280;29744;49.078;12.878;2023-05-19T15:53:28;96664.56;;;15.70;40.26
44079;BME280;29744;49.078;12.878;2023-05-19T15:58:28;96664.88;;;15.69;40.08
44079;BME280;29744;49.078;12.878;2023-05-19T16:03:28;96657.56;;;15.69;40.39
44079;BME280;29744;49.078;12.878;2023-05-19T16:08:29;96664.09;;;15.68;40.59
44079;BME280;29744;49.078;12.878;2023-05-19T16:13:29;96659.47;;;15.69;40.44
44079;BME280;29744;49.078;12.878;2023-05-19T16:18:29;96658.69;;;15.68;40.27
44079;BME280;29744;49.078;12.878;2023-05-19T16:23:30;96655.19;;;15.68;40.51
44079;BME280;29744;49.078;12.878;2023-05-19T16:28:30;96650.88;;;15.67;40.37
44079;BME280;29744;49.078;12.878;2023-05-19T16:33:31;96648.19;;;15.67;40.23
44079;BME280;29744;49.078;12.878;2023-05-19T16:38:31;96650.88;;;15.67;40.46
44079;BME280;29744;49.078;12.878;2023-05-19T16:43:33;96649.78;;;15.68;40.12
44079;BME280;29744;49.078;12.878;2023-05-19T16:48:33;96657.09;;;15.67;40.32
44079;BME280;29744;49.078;12.878;2023-05-19T16:53:33;96644.38;;;15.68;40.52
44079;BME280;29744;49.078;12.878;2023-05-19T16:58:33;96643.56;;;15.67;40.34
44079;BME280;29744;49.078;12.878;2023-05-19T17:03:34;96636.59;;;15.66;40.38
44079;BME280;29744;49.078;12.878;2023-05-19T17:08:34;96643.56;;;15.67;40.29
44079;BME280;29744;49.078;12.878;2023-05-19T17:13:35;96636.25;;;15.68;40.46
44079;BME280;29744;49.078;12.878;2023-05-19T17:18:35;96640.88;;;15.67;40.61
44079;BME280;29744;49.078;12.878;2023-05-19T17:23:36;96646.28;;;15.67;40.60
44079;BME280;29744;49.078;12.878;2023-05-19T17:28:37;96651.69;;;15.67;40.11
44079;BME280;29744;49.078;12.878;2023-05-19T17:33:37;96658.69;;;15.68;40.50
44079;BME280;29744;49.078;12.878;2023-05-19T17:38:38;96659.78;;;15.67;40.40
44079;BME280;29744;49.078;12.878;2023-05-19T17:43:40;96656.31;;;15.67;40.66
44079;BME280;29744;49.078;12.878;2023-05-19T17:48:40;96658.53;;;15.65;40.47
44079;BME280;29744;49.078;12.878;2023-05-19T17:53:41;96660.91;;;15.66;40.52
44079;BME280;29744;49.078;12.878;2023-05-19T17:58:42;96658.53;;;15.65;40.72
44079;BME280;29744;49.078;12.878;2023-05-19T18:03:43;96665.84;;;15.64;40.66
44079;BME280;29744;49.078;12.878;2023-05-19T18:08:48;96656.94;;;15.64;40.33
44079;BME280;29744;49.078;12.878;2023-05-19T18:13:50;96660.78;;;15.63;40.47
44079;BME280;29744;49.078;12.878;2023-05-19T18:18:51;96662.69;;;15.62;40.55
44079;BME280;29744;49.078;12.878;2023-05-19T18:23:51;96656.47;;;15.62;40.75
44079;BME280;29744;49.078;12.878;2023-05-19T18:28:51;96667.28;;;15.62;40.61
44079;BME280;29744;49.078;12.878;2023-05-19T18:33:52;96661.88;;;15.62;40.67
44079;BME280;29744;49.078;12.878;2023-05-19T18:38:56;96663.00;;;15.61;40.30
44079;BME280;29744;49.078;12.878;2023-05-19T18:43:57;96676.53;;;15.61;40.56
44079;BME280;29744;49.078;12.878;2023-05-19T18:48:57;96666.34;;;15.58;40.62
44079;BME280;29744;49.078;12.878;2023-05-19T18:53:57;96670.66;;;15.59;40.54
44079;BME280;29744;49.078;12.878;2023-05-19T18:58:58;96675.25;;;15.58;40.77
44079;BME280;29744;49.078;12.878;2023-05-19T19:03:58;96680.66;;;15.58;40.64
44079;BME280;29744;49.078;12.878;2023-05-19T19:08:59;96681.00;;;15.57;40.60
44079;BME280;29744;49.078;12.878;2023-05-19T19:14:00;96691.00;;;15.56;40.36
44079;BME280;29744;49.078;12.878;2023-05-19T19:19:00;96688.31;;;15.56;40.97
44079;BME280;29744;49.078;12.878;2023-05-19T19:24:01;96684.81;;;15.56;40.67
44079;BME280;29744;49.078;12.878;2023-05-19T19:29:01;96692.91;;;15.56;40.42
44079;BME280;29744;49.078;12.878;2023-05-19T19:34:02;96695.16;;;15.54;40.31
44079;BME280;29744;49.078;12.878;2023-05-19T19:39:08;96690.53;;;15.54;40.63
44079;BME280;29744;49.078;12.878;2023-05-19T19:44:08;96698.66;;;15.54;40.44
44079;BME280;29744;49.078;12.878;2023-05-19T19:49:08;96701.34;;;15.54;40.71
44079;BME280;29744;49.078;12.878;2023-05-19T19:54:09;96707.56;;;15.55;40.96
44079;BME280;29744;49.078;12.878;2023-05-19T19:59:09;96709.00;;;15.52;40.35
44079;BME280;29744;49.078;12.878;2023-05-19T20:04:10;96693.25;;;15.54;40.52
44079;BME280;29744;49.078;12.878;2023-05-19T20:09:10;96690.88;;;15.53;40.89
44079;BME280;29744;49.078;12.878;2023-05-19T20:14:11;96686.56;;;15.52;40.62
44079;BME280;29744;49.078;12.878;2023-05-19T20:19:11;96701.69;;;15.53;40.47
44079;BME280;29744;49.078;12.878;2023-05-19T20:24:11;96698.19;;;15.52;41.05
44079;BME280;29744;49.078;12.878;2023-05-19T20:29:12;96697.06;;;15.53;40.72
44079;BME280;29744;49.078;12.878;2023-05-19T20:34:12;96704.38;;;15.53;40.91
44079;BME280;29744;49.078;12.878;2023-05-19T20:39:12;96700.88;;;15.52;40.71
44079;BME280;29744;49.078;12.878;2023-05-19T20:44:13;96698.19;;;15.52;40.66
44079;BME280;29744;49.078;12.878;2023-05-19T20:49:13;96693.91;;;15.51;40.73
44079;BME280;29744;49.078;12.878;2023-05-19T20:54:13;96689.28;;;15.52;41.04
44079;BME280;29744;49.078;12.878;2023-05-19T20:59:14;96690.41;;;15.51;40.48
44079;BME280;29744;49.078;12.878;2023-05-19T21:04:14;96689.28;;;15.52;40.89
44079;BME280;29744;49.078;12.878;2023-05-19T21:09:14;96687.69;;;15.51;40.78
44079;BME280;29744;49.078;12.878;2023-05-19T21:14:15;96686.91;;;15.50;40.79
44079;BME280;29744;49.078;12.878;2023-05-19T21:19:15;96684.19;;;15.50;41.08
44079;BME280;29744;49.078;12.878;2023-05-19T21:24:15;96682.28;;;15.51;40.99
44079;BME280;29744;49.078;12.878;2023-05-19T21:29:16;96678.78;;;15.50;41.13
44079;BME280;29744;49.078;12.878;2023-05-19T21:34:16;96667.19;;;15.50;40.85
44079;BME280;29744;49.078;12.878;2023-05-19T21:39:17;96678.00;;;15.50;41.07
44079;BME280;29744;49.078;12.878;2023-05-19T21:44:17;96673.72;;;15.49;40.79
44079;BME280;29744;49.078;12.878;2023-05-19T21:49:17;96673.38;;;15.50;41.05
44079;BME280;29744;49.078;12.878;2023-05-19T21:54:18;96675.28;;;15.50;41.12
44079;BME280;29744;49.078;12.878;2023-05-19T21:59:19;96676.09;;;15.50;40.52
44079;BME280;29744;49.078;12.878;2023-05-19T22:04:22;96674.50;;;15.49;41.03
44079;BME280;29744;49.078;12.878;2023-05-19T22:09:22;96671.47;;;15.51;40.83
44079;BME280;29744;49.078;12.878;2023-05-19T22:14:22;96661.78;;;15.50;40.85
44079;BME280;29744;49.078;12.878;2023-05-19T22:19:23;96656.69;;;15.48;40.91
44079;BME280;29744;49.078;12.878;2023-05-19T22:24:23;96662.09;;;15.48;40.53
44079;BME280;29744;49.078;12.878;2023-05-19T22:29:23;96660.19;;;15.49;40.60
44079;BME280;29744;49.078;12.878;2023-05-19T22:34:24;96663.69;;;15.49;40.84
44079;BME280;29744;49.078;12.878;2023-05-19T22:39:24;96663.22;;;15.47;40.98
44079;BME280;29744;49.078;12.878;2023-05-19T22:44:24;96657.81;;;15.47;40.93
44079;BME280;29744;49.078;12.878;2023-05-19T22:49:25;96664.00;;;15.48;40.75
44079;BME280;29744;49.078;12.878;2023-05-19T22:54:26;96661.31;;;15.48;41.10
44079;BME280;29744;49.078;12.878;2023-05-19T22:59:26;96662.44;;;15.46;40.77
44079;BME280;29744;49.078;12.878;2023-05-19T23:04:26;96660.53;;;15.47;40.91
44079;BME280;29744;49.078;12.878;2023-05-19T23:09:27;96658.94;;;15.46;40.89
44079;BME280;29744;49.078;12.878;2023-05-19T23:14:27;96672.44;;;15.46;40.85
44079;BME280;29744;49.078;12.878;2023-05-19T23:19:27;96671.66;;;15.45;40.58
44079;BME280;29744;49.078;12.878;2023-05-19T23:24:30;96660.06;;;15.45;40.65
44079;BME280;29744;49.078;12.878;2023-05-19T23:29:30;96654.66;;;15.45;40.90
44079;BME280;29744;49.078;12.878;2023-05-19T23:34:31;96646.53;;;15.45;41.02
44079;BME280;29744;49.078;12.878;2023-05-19T23:39:31;96643.84;;;15.45;40.92
44079;BME280;29744;49.078;12.878;2023-05-19T23:44:31;96651.94;;;15.45;41.12
44079;BME280;29744;49.078;12.878;2023-05-19T23:49:32;96641.13;;;15.45;40.58
44079;BME280;29744;49.078;12.878;2023-05-19T23:54:32;96636.06;;;15.43;40.93
44079;BME280;29744;49.078;12.878;2023-05-19T23:59:32;96632.56;;;15.43;41.06
